Time;durP1;ratioP1;P1;durP2;ratioP2;P2;SDS_P1;SDS_P2;PMS_P1;PMS_P2;Temp;Humidity;BMP_temperature;BMP_pressure;BME280_temperature;BME280_humidity;BME280_pressure;Samples;Min_cycle;Max_cycle;Signal;HPM_P1;HPM_P2
2023/09/24 00:03:50;;;;;;;;;;;;;;;17.81;74.91;100792.28;10340679;28;96761;-72
2023/09/24 00:08:54;;;;;;;4.00;1.98;;;;;;;17.83;72.74;100790.38;10333303;28;98433;-73
2023/09/24 00:13:59;;;;;;;2.17;1.73;;;;;;;17.87;72.37;100790.09;10331704;28;97254;-72
2023/09/24 00:19:03;;;;;;;;;;;;;;;17.76;74.72;100791.69;10338620;28;97288;-72
2023/09/24 00:24:07;;;;;;;3.33;2.05;;;;;;;17.87;72.13;100779.44;10344300;28;97387;-71
2023/09/24 00:29:12;;;;;;;3.40;1.80;;;;;;;17.97;71.84;100775.25;10344131;28;97925;-72
2023/09/24 00:34:16;;;;;;;3.67;1.80;;;;;;;17.75;73.90;100780.19;10347675;28;96948;-72
2023/09/24 00:39:19;;;;;;;4.53;1.93;;;;;;;17.76;73.42;100781.06;10333893;28;97894;-73
2023/09/24 00:44:24;;;;;;;4.57;2.08;;;;;;;17.62;73.96;100771.22;10343133;28;97354;-73
2023/09/24 00:49:29;;;;;;;;;;;;;;;17.50;75.93;100771.94;10337294;28;96902;-72
2023/09/24 00:54:32;;;;;;;2.53;1.77;;;;;;;17.43;75.83;100772.41;10321718;28;97105;-71
2023/09/24 00:59:38;;;;;;;3.67;1.73;;;;;;;17.38;75.83;100770.00;10343124;28;97086;-71
2023/09/24 01:04:42;;;;;;;3.30;1.73;;;;;;;17.32;75.38;100778.34;10339285;28;98804;-71
2023/09/24 01:09:47;;;;;;;4.57;1.88;;;;;;;17.48;74.07;100779.19;10363856;28;97603;-71
2023/09/24 01:14:53;;;;;;;2.63;1.70;;;;;;;17.45;74.47;100775.81;10330176;28;96874;-71
2023/09/24 01:19:58;;;;;;;4.03;1.88;;;;;;;17.42;73.98;100786.63;10345567;28;99142;-71
2023/09/24 01:25:03;;;;;;;;;;;;;;;17.29;75.36;100785.66;10337573;28;97029;-72
2023/09/24 01:30:07;;;;;;;4.97;1.80;;;;;;;17.31;74.99;100781.09;10341499;22;97085;-72
2023/09/24 01:35:11;;;;;;;3.63;1.73;;;;;;;17.27;74.67;100777.75;10348239;28;97174;-72
2023/09/24 01:40:18;;;;;;;3.53;1.90;;;;;;;17.26;75.01;100781.34;10339024;28;98818;-72
2023/09/24 01:45:22;;;;;;;3.70;1.60;;;;;;;17.27;74.49;100783.09;10344400;28;97206;-72
2023/09/24 01:50:27;;;;;;;4.53;2.05;;;;;;;17.16;74.82;100780.19;10345508;28;98998;-72
2023/09/24 01:55:32;;;;;;;4.10;2.13;;;;;;;17.27;75.01;100777.75;10344268;28;98944;-72
2023/09/24 02:00:37;;;;;;;5.05;2.15;;;;;;;17.15;74.99;100775.81;10340768;28;99200;-72
2023/09/24 02:05:42;;;;;;;3.05;1.80;;;;;;;17.32;74.63;100773.03;10340211;28;96826;-72
2023/09/24 02:10:48;;;;;;;3.40;2.10;;;;;;;17.29;74.33;100775.00;10347798;28;97508;-72
2023/09/24 02:15:52;;;;;;;2.60;1.50;;;;;;;17.31;74.30;100781.94;10345983;28;97269;-72
2023/09/24 02:20:56;;;;;;;2.40;1.50;;;;;;;17.25;74.46;100771.66;10351708;28;98299;-72
2023/09/24 02:26:01;;;;;;;4.10;1.77;;;;;;;17.33;74.15;100757.94;10342230;28;97103;-72
2023/09/24 02:31:04;;;;;;;6.55;1.92;;;;;;;17.27;74.06;100758.28;10342817;28;97408;-72
2023/09/24 02:36:08;;;;;;;3.03;1.77;;;;;;;17.33;72.94;100753.44;10352674;28;96833;-72
2023/09/24 02:41:13;;;;;;;3.23;1.50;;;;;;;17.22;73.63;100753.25;10356763;28;97610;-72
2023/09/24 02:46:16;;;;;;;3.85;1.70;;;;;;;17.29;73.21;100751.94;10341993;28;99082;-72
2023/09/24 02:51:20;;;;;;;3.92;1.95;;;;;;;17.29;72.39;100749.28;10344845;28;97224;-72
2023/09/24 02:56:25;;;;;;;3.20;1.63;;;;;;;17.28;72.75;100739.56;10343620;28;97140;-71
2023/09/24 03:01:29;;;;;;;3.33;1.75;;;;;;;17.28;72.20;100744.88;10345246;28;97792;-71
2023/09/24 03:06:33;;;;;;;3.23;1.60;;;;;;;17.21;71.95;100745.34;10348125;28;97031;-71
2023/09/24 03:11:37;;;;;;;4.45;1.50;;;;;;;17.18;72.17;100748.16;10349454;28;98929;-72
2023/09/24 03:16:40;;;;;;;;;;;;;;;17.20;72.13;100752.47;10346441;28;98646;-71
2023/09/24 03:21:44;;;;;;;3.03;1.50;;;;;;;17.20;72.16;100757.78;10342996;28;96866;-72
2023/09/24 03:26:48;;;;;;;2.90;1.55;;;;;;;17.29;71.29;100757.25;10344650;28;99073;-71
2023/09/24 03:31:51;;;;;;;1.85;1.63;;;;;;;17.21;71.56;100761.31;10332439;28;96842;-71
2023/09/24 03:36:55;;;;;;;2.50;1.50;;;;;;;17.11;71.19;100755.66;10350785;28;96855;-71
2023/09/24 03:41:59;;;;;;;6.18;1.65;;;;;;;17.19;71.04;100761.38;10339814;28;98978;-71
2023/09/24 03:47:04;;;;;;;2.60;1.15;;;;;;;17.13;71.11;100761.75;10342487;28;96867;-71
2023/09/24 03:52:10;;;;;;;4.53;1.60;;;;;;;17.12;70.72;100754.69;10339424;28;96857;-71
2023/09/24 03:57:14;;;;;;;2.55;1.50;;;;;;;17.04;70.72;100757.81;10340232;28;96784;-73
2023/09/24 04:02:17;;;;;;;1.83;1.23;;;;;;;17.02;70.74;100754.41;10345307;28;96822;-73
2023/09/24 04:07:21;;;;;;;3.60;1.65;;;;;;;17.00;70.41;100755.41;10332850;28;99156;-72
2023/09/24 04:12:26;;;;;;;3.93;1.60;;;;;;;17.00;70.09;100742.13;10336458;28;97029;-72
2023/09/24 04:17:30;;;;;;;2.30;1.30;;;;;;;17.01;69.71;100752.69;10342225;28;98771;-73
2023/09/24 04:22:33;;;;;;;2.57;1.40;;;;;;;16.94;70.37;100743.34;10351003;28;96796;-73
2023/09/24 04:27:38;;;;;;;4.03;1.50;;;;;;;16.86;70.44;100748.25;10341342;28;98520;-73
2023/09/24 04:32:42;;;;;;;2.92;1.40;;;;;;;16.89;70.50;100750.75;10339730;28;99104;-73
2023/09/24 04:37:45;;;;;;;3.22;1.35;;;;;;;16.94;69.72;100751.34;10340186;28;96858;-73
2023/09/24 04:42:51;;;;;;;3.03;1.33;;;;;;;16.89;69.70;100760.50;10335211;28;97437;-73
2023/09/24 04:47:54;;;;;;;2.75;1.77;;;;;;;16.97;69.40;100752.94;10334084;28;98654;-73
2023/09/24 04:52:57;;;;;;;2.03;1.10;;;;;;;16.87;69.66;100757.09;10334860;28;96907;-73
2023/09/24 04:58:02;;;;;;;3.42;1.40;;;;;;;16.85;69.34;100756.31;10334130;28;97079;-72
2023/09/24 05:03:06;;;;;;;4.50;1.52;;;;;;;16.81;69.87;100757.41;10334761;28;96913;-72
2023/09/24 05:08:10;;;;;;;2.75;1.27;;;;;;;16.73;69.96;100762.31;10335028;28;99143;-71
2023/09/24 05:13:14;;;;;;;3.53;1.73;;;;;;;16.83;69.04;100758.19;10340273;28;97642;-73
2023/09/24 05:18:18;;;;;;;3.60;1.20;;;;;;;16.78;68.99;100760.25;10333092;28;98809;-73
2023/09/24 05:23:25;;;;;;;2.42;1.17;;;;;;;16.72;69.26;100758.81;10337818;28;98799;-73
2023/09/24 05:28:29;;;;;;;2.58;1.30;;;;;;;16.65;69.88;100752.13;10327920;28;96898;-73
2023/09/24 05:33:32;;;;;;;1.88;1.17;;;;;;;16.62;69.75;100757.59;10329925;28;96962;-73
2023/09/24 05:38:36;;;;;;;4.53;1.58;;;;;;;16.61;69.69;100755.03;10339917;28;97734;-73
2023/09/24 05:43:44;;;;;;;2.70;1.20;;;;;;;16.52;69.33;100766.19;10345473;28;98888;-73
2023/09/24 05:48:49;;;;;;;1.70;1.00;;;;;;;16.50;69.83;100757.44;10340230;28;96848;-73
2023/09/24 05:53:52;;;;;;;3.97;1.60;;;;;;;16.53;69.32;100754.63;10341430;28;98859;-73
2023/09/24 05:58:57;;;;;;;3.17;1.20;;;;;;;16.51;69.21;100760.03;10344767;28;98606;-73
2023/09/24 06:04:00;;;;;;;3.83;1.20;;;;;;;16.44;69.54;100757.78;10343923;28;97119;-73
2023/09/24 06:09:08;;;;;;;2.20;1.23;;;;;;;16.39;69.39;100759.81;10342099;28;98602;-73
2023/09/24 06:14:13;;;;;;;2.17;1.30;;;;;;;16.37;69.57;100777.63;10340880;28;98305;-73
2023/09/24 06:19:17;;;;;;;2.92;1.08;;;;;;;16.32;69.34;100785.00;10348086;28;99142;-73
2023/09/24 06:24:21;;;;;;;2.20;1.27;;;;;;;16.31;69.12;100804.50;10332616;28;100344;-71
2023/09/24 06:29:26;;;;;;;2.73;1.63;;;;;;;16.40;68.55;100783.66;10342585;28;99783;-72
2023/09/24 06:34:30;;;;;;;3.53;1.30;;;;;;;16.48;68.69;100791.22;10344136;28;97471;-72
2023/09/24 06:39:33;;;;;;;4.77;1.30;;;;;;;16.43;68.70;100799.44;10344313;28;97009;-71
2023/09/24 06:44:38;;;;;;;1.83;1.27;;;;;;;16.43;68.10;100803.91;10343743;28;96963;-71
2023/09/24 06:49:41;;;;;;;2.38;1.35;;;;;;;16.50;67.91;100805.25;10338124;28;96837;-71
2023/09/24 06:54:44;;;;;;;2.92;1.17;;;;;;;16.63;67.76;100808.97;10338730;28;98622;-72
2023/09/24 06:59:49;;;;;;;2.03;1.00;;;;;;;16.54;67.78;100823.63;10337855;28;96826;-72
2023/09/24 07:04:53;;;;;;;2.17;1.35;;;;;;;16.63;67.11;100816.94;10350682;28;97111;-72
2023/09/24 07:09:58;;;;;;;1.63;1.17;;;;;;;16.79;66.90;100823.13;10342284;28;99172;-73
2023/09/24 07:15:02;;;;;;;;;;;;;;;18.23;63.08;100826.06;10343579;28;97028;-72
2023/09/24 07:20:08;;;;;;;3.13;1.33;;;;;;;19.59;60.53;100820.72;10336679;28;98562;-72
2023/09/24 07:25:11;;;;;;;2.03;1.10;;;;;;;20.79;58.95;100828.19;10346418;28;98908;-72
2023/09/24 07:30:17;;;;;;;2.37;1.10;;;;;;;21.43;56.84;100825.19;10338871;28;97027;-72
2023/09/24 07:35:21;;;;;;;2.22;1.10;;;;;;;22.30;55.51;100825.53;10333603;28;98998;-72
2023/09/24 07:40:24;;;;;;;2.87;1.10;;;;;;;22.98;53.60;100824.53;10331518;28;98602;-74
2023/09/24 07:45:28;;;;;;;2.07;1.20;;;;;;;23.04;51.68;100821.38;10337794;28;98922;-72
2023/09/24 07:50:32;;;;;;;3.08;0.90;;;;;;;23.20;49.97;100828.03;10338795;28;96774;-72
2023/09/24 07:55:35;;;;;;;2.93;1.27;;;;;;;23.50;48.38;100824.63;10345865;28;97774;-72
2023/09/24 08:00:40;;;;;;;6.07;1.10;;;;;;;24.34;47.67;100822.69;10340772;28;96871;-72
2023/09/24 08:05:44;;;;;;;1.90;0.80;;;;;;;24.72;45.25;100828.22;10337147;28;96926;-72
2023/09/24 08:10:47;;;;;;;2.60;0.98;;;;;;;24.99;45.47;100829.44;10343571;28;97455;-72
2023/09/24 08:15:52;;;;;;;1.67;1.00;;;;;;;25.28;44.15;100827.69;10356225;28;99024;-73
2023/09/24 08:20:55;;;;;;;2.00;1.05;;;;;;;25.92;43.36;100833.41;10334549;28;98250;-72
2023/09/24 08:25:59;;;;;;;2.38;0.93;;;;;;;26.42;42.20;100829.47;10349307;28;98315;-72
2023/09/24 08:31:10;;;;;;;2.58;1.30;;;;;;;26.63;40.18;100830.94;10330988;28;98401;-72
2023/09/24 08:36:13;;;;;;;2.90;1.38;;;;;;;26.86;40.22;100824.16;10327172;28;97722;-71
2023/09/24 08:41:16;;;;;;;;;;;;;;;26.00;40.53;100822.72;10332269;28;99394;-72
2023/09/24 08:46:22;;;;;;;2.85;1.30;;;;;;;25.95;40.46;100831.25;10330135;28;97030;-71
2023/09/24 08:51:26;;;;;;;2.10;1.05;;;;;;;26.47;39.93;100832.56;10328481;28;98316;-72
2023/09/24 08:56:29;;;;;;;;;;;;;;;26.36;38.79;100832.72;10328220;28;96851;-72
2023/09/24 09:01:34;;;;;;;2.40;0.90;;;;;;;27.08;38.55;100825.59;10329102;28;97167;-72
2023/09/24 09:06:38;;;;;;;1.88;0.88;;;;;;;26.73;38.42;100830.91;10330896;28;97273;-71
2023/09/24 09:11:43;;;;;;;1.42;0.80;;;;;;;27.33;37.59;100827.56;10330564;28;96865;-73
2023/09/24 09:16:59;;;;;;;2.13;1.10;;;;;;;27.93;36.03;100831.31;10329779;28;98416;-75
2023/09/24 09:22:17;;;;;;;2.28;1.10;;;;;;;27.84;35.66;100826.88;10338606;28;99207;-75
2023/09/24 09:27:20;;;;;;;1.83;0.82;;;;;;;28.42;35.52;100822.56;10338478;28;96899;-74
2023/09/24 09:32:36;;;;;;;2.38;1.20;;;;;;;28.36;34.94;100830.50;10335991;28;99080;-74
2023/09/24 09:37:41;;;;;;;1.45;0.88;;;;;;;27.39;35.91;100820.69;10336297;28;97171;-74
2023/09/24 09:42:50;;;;;;;1.35;0.88;;;;;;;27.64;35.55;100823.47;10336949;28;96814;-76
2023/09/24 09:48:01;;;;;;;1.92;1.10;;;;;;;27.80;35.14;100814.66;10336616;28;97346;-74
2023/09/24 09:53:07;;;;;;;2.50;1.15;;;;;;;27.99;34.56;100811.78;10337204;28;98631;-74
2023/09/24 09:58:12;;;;;;;1.48;0.95;;;;;;;28.38;33.80;100806.78;10333982;28;98057;-74
2023/09/24 10:03:28;;;;;;;1.88;1.10;;;;;;;28.84;33.95;100800.91;10336664;28;99357;-74
2023/09/24 10:08:39;;;;;;;1.73;1.02;;;;;;;28.50;33.69;100803.66;10335396;28;98967;-74
2023/09/24 10:13:47;;;;;;;2.13;0.85;;;;;;;28.39;33.64;100798.53;10338501;28;97822;-73
2023/09/24 10:19:03;;;;;;;2.08;1.27;;;;;;;29.07;32.95;100799.31;10335204;28;96893;-74
2023/09/24 10:24:49;;;;;;;1.85;0.90;;;;;;;28.99;33.23;100791.16;10330851;28;96989;-74
2023/09/24 10:30:09;;;;;;;1.70;0.80;;;;;;;28.69;33.12;100783.59;10331847;28;97810;-76
2023/09/24 10:35:14;;;;;;;2.78;1.10;;;;;;;28.71;33.22;100785.13;10338768;28;97792;-74
2023/09/24 10:40:17;;;;;;;2.22;1.08;;;;;;;28.39;33.89;100778.72;10337869;28;97197;-74
2023/09/24 10:45:27;;;;;;;1.65;1.02;;;;;;;28.78;32.89;100769.91;10336839;28;98683;-76
2023/09/24 10:50:32;;;;;;;3.03;0.93;;;;;;;29.94;32.17;100773.28;10322959;28;98844;-74
2023/09/24 10:55:40;;;;;;;1.52;1.10;;;;;;;29.89;31.61;100770.25;10333390;28;97777;-74
2023/09/24 11:00:50;;;;;;;1.30;0.82;;;;;;;30.91;31.19;100767.56;10328565;28;98734;-75
2023/09/24 11:05:56;;;;;;;1.75;1.00;;;;;;;30.69;31.75;100760.19;10336612;28;98729;-75
2023/09/24 11:10:59;;;;;;;1.70;1.00;;;;;;;32.03;30.11;100752.25;10330402;28;98932;-75
2023/09/24 11:16:04;;;;;;;2.63;1.08;;;;;;;30.72;30.60;100754.41;10332515;28;97263;-74
2023/09/24 11:21:08;;;;;;;2.03;1.05;;;;;;;31.42;29.94;100749.72;10337023;28;96857;-75
2023/09/24 11:26:12;;;;;;;1.20;0.90;;;;;;;31.86;28.80;100751.56;10329465;28;96974;-74
2023/09/24 11:31:24;;;;;;;1.10;0.93;;;;;;;31.40;29.29;100738.19;10320066;28;97725;-74
2023/09/24 11:36:28;;;;;;;1.95;0.93;;;;;;;31.64;29.17;100740.69;10327875;28;99055;-77
2023/09/24 11:41:32;;;;;;;2.10;1.05;;;;;;;31.60;29.10;100736.66;10327924;28;97588;-74
2023/09/24 11:46:35;;;;;;;1.85;0.98;;;;;;;33.20;27.79;100728.44;10332912;28;97000;-73
2023/09/24 11:51:40;;;;;;;1.92;0.82;;;;;;;31.79;28.15;100726.13;10317986;28;96800;-74
2023/09/24 11:56:43;;;;;;;1.15;0.65;;;;;;;31.93;28.13;100721.72;10331494;28;96873;-73
2023/09/24 12:01:46;;;;;;;2.30;1.00;;;;;;;32.13;28.98;100715.56;10328012;28;97078;-74
2023/09/24 12:06:51;;;;;;;1.35;0.85;;;;;;;32.22;28.39;100717.13;10332960;28;97755;-73
2023/09/24 12:11:54;;;;;;;2.30;1.02;;;;;;;33.00;28.17;100716.47;10332631;28;98569;-74
2023/09/24 12:16:58;;;;;;;1.20;0.80;;;;;;;33.26;27.54;100711.28;10338813;28;98774;-74
2023/09/24 12:22:02;;;;;;;1.17;0.80;;;;;;;33.05;27.72;100703.09;10328679;28;96960;-72
2023/09/24 12:27:06;;;;;;;1.98;1.02;;;;;;;33.61;27.39;100696.72;10326808;28;97169;-73
2023/09/24 12:32:09;;;;;;;2.05;0.85;;;;;;;33.61;27.22;100696.72;10323328;28;98880;-73
2023/09/24 12:37:14;;;;;;;2.58;1.20;;;;;;;34.08;26.98;100694.13;10330951;28;96877;-74
2023/09/24 12:42:17;;;;;;;1.00;0.65;;;;;;;34.46;26.30;100689.09;10329865;28;96897;-73
2023/09/24 12:47:21;;;;;;;1.55;0.90;;;;;;;34.97;25.68;100690.34;10330312;28;97185;-73
2023/09/24 12:52:26;;;;;;;2.03;1.10;;;;;;;35.33;25.33;100681.75;10337563;28;96905;-73
2023/09/24 12:57:31;;;;;;;2.30;0.80;;;;;;;36.39;24.50;100670.44;10339623;28;98433;-73
2023/09/24 13:02:34;;;;;;;1.70;1.00;;;;;;;35.45;25.50;100675.47;10337841;28;98698;-73
2023/09/24 13:07:39;;;;;;;1.60;0.80;;;;;;;35.50;25.79;100670.19;10336254;28;96792;-73
2023/09/24 13:12:42;;;;;;;1.45;0.80;;;;;;;35.88;25.27;100664.88;10339994;28;98788;-73
2023/09/24 13:17:46;;;;;;;1.55;0.90;;;;;;;35.36;26.02;100671.22;10323734;28;98190;-74
2023/09/24 13:22:51;;;;;;;2.65;0.80;;;;;;;36.73;24.52;100675.56;10337898;28;96932;-74
2023/09/24 13:27:54;;;;;;;1.90;0.80;;;;;;;37.07;23.87;100669.66;10338741;28;97033;-73
2023/09/24 13:32:57;;;;;;;1.17;0.75;;;;;;;36.93;23.95;100659.88;10336120;28;97678;-73
2023/09/24 13:38:02;;;;;;;1.90;0.82;;;;;;;37.60;23.89;100654.47;10334899;28;99098;-74
2023/09/24 13:43:06;;;;;;;1.10;0.80;;;;;;;38.03;23.00;100650.88;10333569;28;96959;-73
2023/09/24 13:48:10;;;;;;;1.45;0.70;;;;;;;37.18;24.29;100644.25;10332867;28;100145;-73
2023/09/24 13:53:15;;;;;;;1.42;0.93;;;;;;;37.76;23.28;100639.31;10334806;28;96893;-74
2023/09/24 13:58:18;;;;;;;1.65;0.80;;;;;;;37.10;23.69;100633.56;10327312;22;100583;-74
2023/09/24 14:03:22;;;;;;;1.20;0.60;;;;;;;36.90;24.23;100637.50;10295887;28;98747;-74
2023/09/24 14:13:48;;;;;;;0.98;0.60;;;;;;;35.99;25.15;100631.38;10311013;28;97145;-73
2023/09/24 14:18:53;;;;;;;1.90;0.90;;;;;;;35.77;25.33;100623.59;10315166;28;96777;-73
2023/09/24 14:23:58;;;;;;;1.50;0.73;;;;;;;35.23;25.39;100621.97;10304775;28;97193;-73
2023/09/24 14:29:02;;;;;;;1.40;0.80;;;;;;;34.88;26.14;100625.03;10305071;28;99712;-73
2023/09/24 14:34:07;;;;;;;1.77;1.00;;;;;;;34.43;25.82;100615.69;10299287;28;97000;-73
2023/09/24 14:39:12;;;;;;;1.58;1.00;;;;;;;34.52;26.13;100607.09;10301871;28;97254;-73
2023/09/24 14:44:16;;;;;;;1.30;0.82;;;;;;;34.10;27.17;100606.50;10301438;28;96855;-75
2023/09/24 14:49:20;;;;;;;1.85;0.90;;;;;;;33.73;27.28;100617.84;10310175;28;97227;-74
2023/09/24 14:54:26;;;;;;;2.63;1.23;;;;;;;33.42;27.60;100605.44;10292041;28;96892;-80
2023/09/24 14:59:30;;;;;;;3.08;1.20;;;;;;;32.87;28.20;100605.38;10290309;28;98409;-72
2023/09/24 15:04:33;;;;;;;2.00;1.08;;;;;;;32.77;28.27;100595.81;10291828;28;98372;-72
2023/09/24 15:09:38;;;;;;;2.13;1.05;;;;;;;32.12;29.55;100593.16;10292133;28;97412;-76
2023/09/24 15:14:41;;;;;;;2.33;1.00;;;;;;;31.67;29.82;100596.94;10293770;28;96895;-76
2023/09/24 15:19:45;;;;;;;2.13;1.15;;;;;;;31.46;30.62;100587.84;10298822;28;96885;-75
2023/09/24 15:24:50;;;;;;;1.50;1.00;;;;;;;31.27;30.71;100597.34;10299117;28;96801;-76
2023/09/24 15:29:53;;;;;;;1.70;1.02;;;;;;;31.20;30.89;100591.78;10298840;28;96915;-75
2023/09/24 15:34:56;;;;;;;;;;;;;;;30.63;32.38;100587.81;10298548;28;96997;-76
2023/09/24 15:40:01;;;;;;;2.33;1.07;;;;;;;30.43;32.80;100588.47;10335118;28;97060;-75
2023/09/24 15:45:10;;;;;;;4.07;1.48;;;;;;;30.32;33.30;100586.19;10339820;28;96677;-76
2023/09/24 15:50:13;;;;;;;3.22;1.63;;;;;;;30.19;33.76;100587.63;10338571;28;96655;-76
2023/09/24 15:55:18;;;;;;;;;;;;;;;29.86;35.56;100596.06;10340314;28;97374;-76
2023/09/24 16:00:22;;;;;;;2.35;1.13;;;;;;;29.76;35.57;100601.66;10337706;28;97089;-75
2023/09/24 16:05:26;;;;;;;3.50;1.42;;;;;;;29.57;35.61;100593.09;10339370;28;97014;-76
2023/09/24 16:10:31;;;;;;;3.03;1.40;;;;;;;29.31;35.73;100603.31;10339159;28;96839;-75
2023/09/24 16:15:35;;;;;;;1.92;1.10;;;;;;;29.15;35.68;100602.31;10338199;28;96779;-75
2023/09/24 16:20:38;;;;;;;3.00;1.20;;;;;;;28.96;35.92;100608.09;10338952;28;96713;-75
2023/09/24 16:25:43;;;;;;;2.22;1.23;;;;;;;28.86;36.11;100612.75;10333752;28;98736;-76
2023/09/24 16:30:46;;;;;;;1.98;1.13;;;;;;;28.74;35.92;100608.69;10294999;28;97013;-75
2023/09/24 16:35:51;;;;;;;1.48;0.90;;;;;;;28.60;36.01;100620.19;10294039;28;98603;-75
2023/09/24 16:40:59;;;;;;;1.75;1.15;;;;;;;28.44;36.49;100613.91;10290424;28;98667;-75
2023/09/24 16:46:03;;;;;;;2.95;1.10;;;;;;;28.29;36.40;100618.25;10296823;28;96783;-75
2023/09/24 16:51:06;;;;;;;2.30;1.23;;;;;;;28.14;37.17;100626.13;10297370;28;96674;-75
2023/09/24 16:56:11;;;;;;;2.17;1.15;;;;;;;28.02;36.77;100638.25;10292745;28;98053;-75
2023/09/24 17:01:17;;;;;;;1.83;0.90;;;;;;;27.97;37.09;100651.44;10295306;28;96870;-75
2023/09/24 17:06:21;;;;;;;3.25;1.10;;;;;;;27.79;37.03;100646.09;10297186;28;97413;-75
2023/09/24 17:11:25;;;;;;;1.80;0.90;;;;;;;27.63;37.35;100653.25;10296396;28;96759;-75
2023/09/24 17:16:29;;;;;;;2.17;1.00;;;;;;;27.48;37.40;100660.22;10296789;28;96793;-75
2023/09/24 17:21:32;;;;;;;2.08;1.10;;;;;;;27.41;38.07;100648.34;10294378;28;98234;-75
2023/09/24 17:26:37;;;;;;;2.10;1.10;;;;;;;27.26;38.68;100658.06;10272717;28;96753;-75
2023/09/24 17:31:40;;;;;;;1.48;0.98;;;;;;;27.09;39.07;100667.91;10272909;28;96792;-76
2023/09/24 17:36:44;;;;;;;1.55;0.90;;;;;;;26.88;39.80;100665.47;10267576;28;96786;-76
2023/09/24 17:41:49;;;;;;;2.30;1.25;;;;;;;26.75;39.49;100673.09;10267806;28;96947;-75
2023/09/24 17:46:53;;;;;;;2.15;1.10;;;;;;;26.62;40.15;100669.09;10290951;28;96748;-75
2023/09/24 17:51:57;;;;;;;3.05;1.20;;;;;;;26.38;41.16;100671.50;10273827;28;97041;-75
2023/09/24 17:57:02;;;;;;;2.30;1.50;;;;;;;26.12;42.21;100683.97;10265478;28;98900;-75
2023/09/24 18:02:06;;;;;;;3.05;1.23;;;;;;;25.85;43.04;100687.47;10293937;28;97422;-75
2023/09/24 18:07:10;;;;;;;1.70;1.00;;;;;;;25.68;43.09;100689.06;10294811;28;96827;-75
2023/09/24 18:12:15;;;;;;;4.43;1.70;;;;;;;25.55;43.64;100679.63;10266349;28;96822;-75
2023/09/24 18:17:18;;;;;;;1.83;1.10;;;;;;;25.35;44.74;100696.78;10295132;28;96837;-75
2023/09/24 18:22:22;;;;;;;2.07;1.27;;;;;;;25.20;44.82;100704.47;10297938;28;96866;-75
2023/09/24 18:27:30;;;;;;;1.98;1.20;;;;;;;25.07;45.14;100713.84;10299579;28;97003;-75
2023/09/24 18:32:34;;;;;;;2.10;1.10;;;;;;;25.10;44.96;100721.63;10298490;28;96991;-75
2023/09/24 18:37:38;;;;;;;;;;;;;;;24.91;46.38;100713.50;10297469;28;96860;-76
2023/09/24 18:42:44;;;;;;;1.30;0.90;;;;;;;24.62;46.12;100721.53;10272112;28;98114;-76
2023/09/24 18:47:47;;;;;;;1.67;1.10;;;;;;;24.33;47.27;100723.28;10267703;28;97598;-76
2023/09/24 18:52:50;;;;;;;2.10;1.30;;;;;;;24.16;48.04;100726.59;10287680;28;98015;-76
2023/09/24 18:57:55;;;;;;;4.30;1.27;;;;;;;23.93;48.66;100731.31;10264851;28;96928;-76
2023/09/24 19:02:58;;;;;;;2.70;1.13;;;;;;;23.77;49.14;100733.63;10295214;28;97879;-75
2023/09/24 19:08:02;;;;;;;4.07;1.47;;;;;;;23.76;48.99;100741.81;10284582;28;96912;-76
2023/09/24 19:13:07;;;;;;;1.95;1.00;;;;;;;23.71;49.22;100747.59;10278381;28;99032;-76
2023/09/24 19:18:10;;;;;;;2.20;1.02;;;;;;;23.52;49.86;100742.94;10285233;28;97060;-76
2023/09/24 19:23:14;;;;;;;3.43;1.20;;;;;;;23.36;50.56;100753.25;10271398;28;96774;-76
2023/09/24 19:28:19;;;;;;;2.10;1.38;;;;;;;23.09;51.46;100758.28;10268870;28;97495;-75
2023/09/24 19:33:22;;;;;;;2.70;1.23;;;;;;;23.06;51.65;100760.34;10290514;28;96812;-76
2023/09/24 19:38:25;;;;;;;2.07;1.20;;;;;;;22.91;51.66;100766.97;10290285;28;97533;-76
2023/09/24 19:43:30;;;;;;;2.50;1.42;;;;;;;22.75;52.16;100774.56;10256947;28;97209;-76
2023/09/24 19:48:34;;;;;;;1.88;0.93;;;;;;;22.66;52.66;100775.31;10258100;28;96987;-76
2023/09/24 19:53:37;;;;;;;3.10;1.38;;;;;;;22.44;53.43;100781.53;10256380;28;96799;-76
2023/09/24 19:58:42;;;;;;;2.38;1.20;;;;;;;22.40;53.18;100791.66;10260438;28;96852;-76
2023/09/24 20:03:46;;;;;;;1.75;1.10;;;;;;;22.24;53.50;100793.88;10263640;28;97174;-76
2023/09/24 20:08:51;;;;;;;2.42;1.10;;;;;;;22.21;53.78;100801.31;10294751;28;97057;-76
2023/09/24 20:14:01;;;;;;;2.60;1.27;;;;;;;22.14;54.02;100808.94;10292913;28;97460;-76
2023/09/24 20:19:09;;;;;;;1.80;1.13;;;;;;;22.28;53.48;100815.94;10297760;28;96700;-76
2023/09/24 20:24:14;;;;;;;1.63;1.23;;;;;;;22.32;53.35;100818.25;10297819;28;96884;-76
2023/09/24 20:29:19;;;;;;;1.98;1.27;;;;;;;21.91;54.74;100819.72;10277217;28;96854;-76
2023/09/24 20:34:23;;;;;;;1.83;1.05;;;;;;;21.58;55.33;100822.31;10297163;28;96731;-76
2023/09/24 20:39:26;;;;;;;1.50;1.03;;;;;;;21.58;55.32;100830.34;10297737;28;97298;-75
2023/09/24 20:44:33;;;;;;;2.10;1.27;;;;;;;21.60;55.50;100837.31;10297575;28;96786;-75
2023/09/24 20:49:37;;;;;;;1.95;1.10;;;;;;;21.46;55.94;100829.47;10336751;28;96846;-75
2023/09/24 20:54:41;;;;;;;2.13;1.52;;;;;;;21.38;56.05;100831.88;10328797;28;96974;-76
2023/09/24 20:59:54;;;;;;;4.03;1.15;;;;;;;21.32;56.28;100830.50;10294224;28;97589;-75
2023/09/24 21:04:58;;;;;;;2.65;1.30;;;;;;;21.25;56.32;100839.94;10291600;28;96980;-75
2023/09/24 21:10:04;;;;;;;3.17;1.52;;;;;;;21.16;56.61;100840.63;10294614;28;96768;-74
2023/09/24 21:15:13;;;;;;;2.00;1.33;;;;;;;20.93;57.68;100853.97;10283396;28;96782;-76
2023/09/24 21:20:17;;;;;;;2.17;1.13;;;;;;;21.12;57.23;100847.13;10276051;28;96772;-76
2023/09/24 21:25:22;;;;;;;2.92;1.40;;;;;;;21.04;57.35;100837.97;10303195;28;96751;-76
2023/09/24 21:30:27;;;;;;;2.73;1.40;;;;;;;20.85;57.94;100841.13;10302618;28;97281;-76
2023/09/24 21:35:30;;;;;;;2.38;1.48;;;;;;;20.52;59.11;100843.56;10301451;28;97325;-75
2023/09/24 21:40:33;;;;;;;2.67;1.50;;;;;;;20.71;58.50;100833.25;10302417;28;96825;-76
2023/09/24 21:45:38;;;;;;;2.90;1.38;;;;;;;20.71;58.59;100843.94;10299884;28;98706;-75
2023/09/24 21:50:41;;;;;;;2.15;1.50;;;;;;;20.89;58.15;100850.66;10302303;28;96681;-76
2023/09/24 21:55:46;;;;;;;2.45;1.48;;;;;;;20.86;58.42;100847.34;10302003;28;96796;-76
2023/09/24 22:00:52;;;;;;;1.65;1.10;;;;;;;20.38;59.71;100837.50;10293814;28;101002;-75
2023/09/24 22:05:56;;;;;;;1.98;1.30;;;;;;;20.17;61.21;100843.31;10301573;28;96744;-76
2023/09/24 22:11:00;;;;;;;4.82;1.48;;;;;;;20.09;60.99;100839.47;10301521;28;96722;-76
2023/09/24 22:16:05;;;;;;;3.65;1.25;;;;;;;20.15;60.32;100847.91;10300658;28;96754;-76
2023/09/24 22:21:09;;;;;;;2.55;1.45;;;;;;;20.07;60.69;100842.25;10299717;28;98754;-76
2023/09/24 22:26:12;;;;;;;2.03;1.37;;;;;;;19.76;61.34;100850.66;10299302;28;96812;-76
2023/09/24 22:31:18;;;;;;;1.30;1.00;;;;;;;20.02;61.05;100844.41;10299529;28;96942;-76
2023/09/24 22:36:22;;;;;;;2.63;1.40;;;;;;;19.98;61.10;100842.91;10297382;28;96891;-75
2023/09/24 22:41:25;;;;;;;2.03;1.23;;;;;;;19.75;62.12;100840.94;10298503;28;97099;-76
2023/09/24 22:46:30;;;;;;;2.22;1.27;;;;;;;19.31;63.36;100843.03;10299185;28;98538;-76
2023/09/24 22:51:34;;;;;;;2.72;1.63;;;;;;;19.32;63.38;100850.06;10297074;28;96798;-76
2023/09/24 22:56:37;;;;;;;3.72;1.58;;;;;;;19.37;63.09;100852.47;10297655;28;96922;-76
2023/09/24 23:01:42;;;;;;;2.35;1.20;;;;;;;19.41;63.00;100841.50;10298837;28;96825;-75
2023/09/24 23:06:47;;;;;;;1.70;1.10;;;;;;;19.32;63.45;100841.22;10298317;28;96863;-76
2023/09/24 23:11:50;;;;;;;2.50;1.65;;;;;;;19.71;62.36;100838.59;10298819;28;96916;-76
2023/09/24 23:16:55;;;;;;;3.92;1.42;;;;;;;19.82;61.86;100836.06;10296565;28;97161;-76
2023/09/24 23:21:58;;;;;;;2.92;1.30;;;;;;;19.89;62.01;100840.00;10298049;28;97244;-76
2023/09/24 23:27:02;;;;;;;3.45;1.30;;;;;;;20.00;61.81;100835.63;10296229;28;97189;-75
2023/09/24 23:32:07;;;;;;;2.30;1.30;;;;;;;19.74;62.35;100827.69;10297114;28;96663;-76